createdAt,value
2023-04-02T00:01:23.954Z,11.11
2023-04-02T00:07:15.575Z,10.98
2023-04-02T00:13:00.099Z,10.98
2023-04-02T00:18:28.138Z,11.23
2023-04-02T00:23:59.362Z,10.96
2023-04-02T00:29:26.450Z,10.78
2023-04-02T00:34:56.118Z,10.77
2023-04-02T00:40:28.359Z,10.82
2023-04-02T00:46:04.505Z,10.33
2023-04-02T00:51:48.608Z,24.23
2023-04-02T00:57:22.086Z,22.06
2023-04-02T01:03:17.361Z,20.41
2023-04-02T01:09:16.214Z,19.19
2023-04-02T01:15:02.615Z,19.05
2023-04-02T01:21:11.983Z,18.80
2023-04-02T01:26:58.492Z,17.83
2023-04-02T01:32:29.604Z,17.24
2023-04-02T01:38:07.737Z,16.74
2023-04-02T01:43:45.572Z,16.90
2023-04-02T01:49:18.628Z,17.16
2023-04-02T01:54:48.032Z,17.31
2023-04-02T02:00:17.552Z,18.22
2023-04-02T02:05:48.543Z,17.97
2023-04-02T02:11:23.092Z,17.53
2023-04-02T02:16:53.673Z,17.88
2023-04-02T02:22:32.483Z,17.28
2023-04-02T02:28:02.630Z,16.53
2023-04-02T02:33:33.085Z,15.91
2023-04-02T02:39:22.825Z,16.03
2023-04-02T02:44:54.855Z,16.71
2023-04-02T02:50:32.539Z,16.79
2023-04-02T02:56:03.563Z,15.81
2023-04-02T03:01:38.929Z,15.43
2023-04-02T03:07:09.620Z,15.02
2023-04-02T03:12:56.127Z,15.96
2023-04-02T03:18:46.141Z,17.09
2023-04-02T03:24:58.313Z,17.08
2023-04-02T03:30:41.626Z,15.98
2023-04-02T03:36:31.235Z,15.31
2023-04-02T03:42:23.162Z,14.73
2023-04-02T03:48:00.070Z,15.23
2023-04-02T03:53:29.934Z,15.46
2023-04-02T03:59:41.684Z,15.03
2023-04-02T04:05:49.542Z,14.81
2023-04-02T04:11:22.936Z,15.47
2023-04-02T04:16:57.726Z,14.42
2023-04-02T04:22:35.969Z,14.84
2023-04-02T04:28:38.691Z,14.70
2023-04-02T04:34:16.400Z,15.33
2023-04-02T04:39:54.784Z,14.97
2023-04-02T04:45:56.339Z,15.00
2023-04-02T04:51:30.297Z,14.77
2023-04-02T04:57:02.957Z,14.71
2023-04-02T05:02:38.823Z,14.30
2023-04-02T05:08:15.313Z,13.96
2023-04-02T05:13:54.806Z,13.89
2023-04-02T05:19:29.899Z,14.05
2023-04-02T05:25:10.535Z,12.74
2023-04-02T05:30:47.072Z,12.76
2023-04-02T05:36:29.582Z,13.40
2023-04-02T05:42:04.522Z,13.20
2023-04-02T05:47:54.743Z,13.81
2023-04-02T05:53:44.898Z,13.30
2023-04-02T05:59:22.011Z,13.25
2023-04-02T06:04:58.809Z,13.56
2023-04-02T06:10:35.653Z,13.34
2023-04-02T06:16:04.150Z,13.88
2023-04-02T06:21:36.091Z,13.51
2023-04-02T06:27:07.267Z,13.43
2023-04-02T06:32:35.810Z,12.87
2023-04-02T06:38:06.396Z,13.75
2023-04-02T06:43:46.438Z,14.37
2023-04-02T06:49:52.781Z,14.46
2023-04-02T06:55:37.496Z,13.74
2023-04-02T07:01:06.098Z,13.59
2023-04-02T07:06:42.654Z,13.81
2023-04-02T07:12:28.414Z,13.85
2023-04-02T07:17:59.372Z,14.12
2023-04-02T07:23:27.477Z,13.47
2023-04-02T07:28:56.753Z,13.69
2023-04-02T07:34:24.069Z,13.64
2023-04-02T07:39:51.781Z,14.26
2023-04-02T07:45:19.671Z,13.36
2023-04-02T07:50:47.340Z,13.92
2023-04-02T07:56:16.448Z,13.72
2023-04-02T08:01:43.656Z,14.16
2023-04-02T08:07:11.389Z,13.40
2023-04-02T08:12:38.735Z,14.00
2023-04-02T08:18:07.046Z,14.35
2023-04-02T08:23:35.799Z,14.47
2023-04-02T08:29:04.662Z,14.39
2023-04-02T08:34:32.209Z,14.76
2023-04-02T08:39:59.553Z,14.93
2023-04-02T08:45:42.631Z,14.97
2023-04-02T08:51:23.470Z,15.09
2023-04-02T08:57:13.329Z,15.50
2023-04-02T09:02:47.600Z,15.38
2023-04-02T09:08:27.630Z,14.90
2023-04-02T09:13:58.809Z,16.28
2023-04-02T09:19:41.544Z,16.07
2023-04-02T09:25:17.573Z,16.89
2023-04-02T09:31:02.659Z,17.50
2023-04-02T09:36:38.577Z,17.55
2023-04-02T09:42:28.379Z,16.35
2023-04-02T09:47:58.457Z,16.28
2023-04-02T09:53:31.597Z,15.40
2023-04-02T09:59:15.942Z,16.26
2023-04-02T10:04:48.897Z,15.23
2023-04-02T10:10:19.300Z,15.01
2023-04-02T10:16:09.667Z,14.05
2023-04-02T10:21:39.081Z,15.44
2023-04-02T10:27:29.931Z,15.37
2023-04-02T10:33:33.405Z,14.72
2023-04-02T10:39:09.252Z,14.70
2023-04-02T10:45:00.161Z,15.69
2023-04-02T10:50:42.277Z,15.77
2023-04-02T10:56:13.263Z,15.50
2023-04-02T11:01:44.216Z,16.94
2023-04-02T11:07:21.579Z,16.95
2023-04-02T11:13:06.023Z,16.57
2023-04-02T11:18:39.010Z,15.69
2023-04-02T11:24:06.721Z,15.47
2023-04-02T11:29:37.502Z,15.92
2023-04-02T11:35:24.756Z,16.36
2023-04-02T11:40:56.582Z,15.99
2023-04-02T11:46:35.202Z,15.72
2023-04-02T11:52:12.062Z,16.22
2023-04-02T11:58:21.456Z,17.08
2023-04-02T12:04:27.840Z,17.41
2023-04-02T12:10:01.058Z,17.40
2023-04-02T12:15:57.984Z,17.00
2023-04-02T12:21:28.636Z,16.37
2023-04-02T12:27:15.801Z,16.35
2023-04-02T12:32:43.274Z,16.10
2023-04-02T12:38:29.305Z,14.80
2023-04-02T12:44:02.654Z,16.07
2023-04-02T12:49:40.739Z,15.72
2023-04-02T12:55:20.514Z,16.11
2023-04-02T13:00:47.939Z,16.74
2023-04-02T13:06:24.460Z,16.34
2023-04-02T13:11:54.304Z,16.37
2023-04-02T13:17:40.910Z,16.54
2023-04-02T13:23:31.744Z,16.48
2023-04-02T13:29:03.610Z,16.61
2023-04-02T13:34:32.115Z,16.60
2023-04-02T13:39:59.724Z,16.13
2023-04-02T13:45:30.406Z,16.70
2023-04-02T13:50:57.695Z,16.83
2023-04-02T13:56:25.758Z,16.79
2023-04-02T14:02:00.202Z,15.90
2023-04-02T14:07:50.475Z,16.96
2023-04-02T14:13:29.107Z,17.30
2023-04-02T14:19:25.238Z,17.26
2023-04-02T14:25:00.675Z,17.57
2023-04-02T14:30:50.707Z,16.47
2023-04-02T14:36:34.593Z,16.91
2023-04-02T14:42:16.892Z,16.88
2023-04-02T14:47:54.844Z,16.73
2023-04-02T14:53:43.302Z,16.89
2023-04-02T14:59:44.413Z,16.64
2023-04-02T15:05:30.630Z,16.07
2023-04-02T15:11:09.838Z,16.06
2023-04-02T15:16:37.833Z,15.74
2023-04-02T15:22:14.622Z,16.10
2023-04-02T15:28:17.068Z,16.52
2023-04-02T15:33:49.961Z,15.88
2023-04-02T15:39:29.414Z,15.92
2023-04-02T15:45:15.468Z,16.41
2023-04-02T15:51:20.632Z,16.61
2023-04-02T15:57:06.254Z,15.63
2023-04-02T16:03:15.275Z,15.64
2023-04-02T16:09:18.259Z,15.21
2023-04-02T16:14:48.336Z,14.83
2023-04-02T16:20:24.978Z,15.11
2023-04-02T16:25:58.676Z,15.45
2023-04-02T16:31:34.012Z,15.58
2023-04-02T16:37:06.573Z,15.90
2023-04-02T16:42:53.184Z,14.92
2023-04-02T16:48:41.008Z,14.08
2023-04-02T16:54:33.482Z,14.44
2023-04-02T17:00:19.055Z,14.81
2023-04-02T17:06:07.021Z,14.64
2023-04-02T17:11:44.815Z,14.27
2023-04-02T17:17:15.092Z,14.42
2023-04-02T17:22:44.464Z,14.07
2023-04-02T17:28:18.171Z,14.62
2023-04-02T17:33:48.510Z,15.14
2023-04-02T17:39:37.351Z,14.85
2023-04-02T17:45:12.051Z,14.73
2023-04-02T17:50:52.269Z,15.40
2023-04-02T17:56:35.689Z,15.05
2023-04-02T18:02:42.232Z,15.51
2023-04-02T18:08:16.435Z,14.76
2023-04-02T18:13:53.104Z,14.65
2023-04-02T18:19:34.624Z,15.14
2023-04-02T18:25:25.675Z,14.78
2023-04-02T18:31:40.505Z,14.55
2023-04-02T18:37:30.257Z,14.58
2023-04-02T18:43:16.933Z,15.17
2023-04-02T18:49:18.490Z,14.94
2023-04-02T18:55:09.573Z,14.93
2023-04-02T19:00:43.439Z,15.43
2023-04-02T19:06:24.601Z,14.49
2023-04-02T19:11:55.937Z,14.64
2023-04-02T19:17:27.534Z,14.51
2023-04-02T19:23:33.401Z,14.16
2023-04-02T19:29:23.423Z,14.55
2023-04-02T19:34:56.873Z,14.77
2023-04-02T19:40:43.082Z,14.79
2023-04-02T19:46:10.538Z,14.61
2023-04-02T19:51:38.752Z,13.64
2023-04-02T19:57:06.401Z,13.98
2023-04-02T20:02:34.724Z,13.76
2023-04-02T20:08:02.490Z,13.85
2023-04-02T20:13:32.292Z,13.93
2023-04-02T20:18:59.231Z,13.92
2023-04-02T20:24:26.403Z,13.86
2023-04-02T20:29:54.132Z,13.41
2023-04-02T20:35:22.141Z,13.77
2023-04-02T20:40:53.115Z,13.50
2023-04-02T20:46:21.038Z,13.67
2023-04-02T20:51:50.171Z,13.28
2023-04-02T20:57:21.981Z,13.37
2023-04-02T21:02:49.331Z,13.73
2023-04-02T21:08:16.278Z,13.67
2023-04-02T21:13:44.480Z,13.69
2023-04-02T21:19:11.503Z,13.11
2023-04-02T21:24:38.812Z,12.76
2023-04-02T21:30:07.392Z,13.10
2023-04-02T21:35:35.046Z,12.82
2023-04-02T21:41:17.468Z,13.03
2023-04-02T21:46:45.965Z,13.36
2023-04-02T21:52:13.418Z,12.98
2023-04-02T21:57:40.965Z,13.09
2023-04-02T22:03:10.080Z,12.63
2023-04-02T22:08:41.540Z,13.37
2023-04-02T22:14:09.028Z,13.26
2023-04-02T22:19:36.488Z,13.14
2023-04-02T22:25:04.061Z,13.15
2023-04-02T22:30:34.118Z,12.30
2023-04-02T22:36:02.867Z,12.66
2023-04-02T22:41:32.571Z,12.19
2023-04-02T22:46:59.548Z,11.60
2023-04-02T22:52:26.817Z,12.44
2023-04-02T22:57:53.787Z,12.40
2023-04-02T23:03:21.085Z,11.89
2023-04-02T23:08:49.169Z,12.03
2023-04-02T23:14:16.615Z,11.75
2023-04-02T23:19:44.332Z,12.08
2023-04-02T23:25:11.755Z,11.51
2023-04-02T23:30:38.837Z,11.27
2023-04-02T23:36:24.938Z,11.12
2023-04-02T23:41:51.800Z,11.16
2023-04-02T23:47:19.671Z,10.86
2023-04-02T23:52:47.742Z,10.77
2023-04-02T23:58:14.836Z,10.78
